Silver Peak Trail, Santa Catalina Island Weather observations

Data are for 10 minute period ending at time listed.
 Day   Time   Solar   Ave.   Ave.  Ave.  Vector    Max.   Stn.    Total
  of    of     Rad.   Air    Rel.  Wind   Wind     Wind   Baro.  Precip.
Year   Day            Temp.  Hum.  Speed  Dir.     Gust   Pres.         
2016   (PST)   W/m2    F      %     mph   deg.      mph    mb.     in.  
------------------------------------------------------------------------
  44   13:20  710.0    74   26.9     8      4.0    10.8    999.0   0.00  
  44   13:30  697.0    78   26.6     8      5.6    12.5    999.0   0.00  
  44   13:40  683.0    73   31.1    10      6.9    12.5    999.0   0.00  
  44   13:50  668.0    76   28.7     9      7.6    11.9    999.0   0.00  
  44   14:00  650.0    76   28.2     9      7.1    14.9    999.0   0.00  
  44   14:10  632.0    77   28.9     6      2.9    10.8    999.0   0.00  
  44   14:20  612.0    77   29.4     8      5.4    11.9    999.0   0.00  
  44   14:30  591.0    78   28.6     8      7.4    12.5    999.0   0.00  
  44   14:40  568.0    78   28.9     8      9.9    11.9    999.0   0.00  
  44   14:50  543.0    78   27.0     6      7.6    11.9    999.0   0.00  
  44   15:00  518.0    76   28.2     6      5.6     9.6    999.0   0.00  
  44   15:10  492.0    76   27.0     7     13.0    10.8    999.0   0.00  
  44   15:20  463.0    77   27.5     6      5.3     9.6    999.0   0.00  
  44   15:30  430.0    77   24.1     7     16.1    10.8    999.0   0.00  
  44   15:40  375.0    75   25.1     6     19.5    13.1    999.0   0.00  
  44   15:50  345.0    76   23.9     6     20.0    12.5    999.0   0.00  
  44   16:00  264.0    75   23.8     5     11.2     9.6    999.0   0.00  
  44   16:10  245.0    74   28.2     6      5.4    10.8    999.0   0.00  
  44   16:20  244.0    74   24.5     8     23.0    12.5    999.0   0.00  
  44   16:30  206.0    74   23.7     9     36.3    13.7    999.0   0.00  
  44   16:40  164.0    71   24.9    13     65.6    19.7    999.0   0.00  
  44   16:50  133.0    71   25.4    12     61.0    19.7    999.0   0.00  
  44   17:00  107.0    72   25.4    11     54.0    16.7    999.0   0.00  
  44   17:10   88.0    72   25.8     8     42.5    13.7    999.0   0.00  
  44   17:20   55.0    72   26.0     8     37.5    15.5    999.0   0.00  
  44   17:30   32.0    69   28.1     9     59.2    14.9    999.0   0.00  
  44   17:40   20.0    70   27.5     7     31.7    13.1    999.0   0.00  
  44   17:50    5.0    69   27.4     6     19.7    10.8    999.0   0.00  
  44   18:00    2.0    71   25.2    11     57.3    14.3    999.0   0.00  
  44   18:10    0.0    72   24.6    10     47.5    14.9    999.0   0.00  
  44   18:20    0.0    71   25.3     9     46.8    14.3    999.0   0.00  
  44   18:30    0.0    71   25.5     8     50.3    13.7    999.0   0.00  
  44   18:40    0.0    71   24.3     9     48.7    13.1    999.0   0.00  
  44   18:50    0.0    71   22.4    11     69.8    14.3    999.0   0.00  
  44   19:00    0.0    70   24.1    10     70.5    14.9    999.0   0.00  
  44   19:10    0.0    70   23.8    11     71.1    14.9    999.0   0.00  
  44   19:20    0.0    71   23.0    11     83.8    16.7    999.0   0.00  
  44   19:30    0.0    70   23.9    12     85.7    17.9    999.0   0.00  
  44   19:40    0.0    72   24.1    12     82.5    16.7    999.0   0.00  
  44   19:50    0.0    66   29.5    11     94.2    17.3    999.0   0.00  
  44   20:00    0.0    68   26.0    12     89.8    16.1    999.0   0.00  
  44   20:10    0.0    70   23.8    11     93.4    15.5    999.0   0.00  
  44   20:20    0.0    71   23.8    10     89.0    14.9    999.0   0.00  
  44   20:30    0.0    71   24.2     9     77.2    14.9    999.0   0.00  
  44   20:40    0.0    71   24.9     9    137.9    13.1    999.0   0.00  
  44   20:50    0.0    71   24.8    10     99.6    16.7    999.0   0.00  
  44   21:00    0.0    69   25.3    12     90.3    17.3    999.0   0.00  
  44   21:10    0.0    69   28.1    14    102.1    20.3    999.0   0.00  
  44   21:20    0.0    68   29.1    13     99.8    19.7    999.0   0.00  
  44   21:30    0.0    68   29.2    12     99.6    19.7    999.0   0.00  
  44   21:40    0.0    69   28.5    14    160.3    18.5    999.0   0.00  
  44   21:50    0.0    70   28.4    17    167.7    21.5    999.0   0.00  
  44   22:00    0.0    69   29.3    17    168.6    21.5    999.0   0.00  
  44   22:10    0.0    68   29.7    19    170.0    23.9    999.0   0.00  
  44   22:20    0.0    68   31.5    20    169.4    24.5    999.0   0.00  
  44   22:30    0.0    68   31.2    20    169.2    23.3    999.0   0.00  
  44   22:40    0.0    67   31.7    19    168.0    22.1    999.0   0.00  
  44   22:50    0.0    66   32.3    17    166.4    20.9    999.0   0.00  
  44   23:00    0.0    66   33.1    16    164.5    18.5    999.0   0.00  
  44   23:10    0.0    66   33.1    16    165.9    19.1    999.0   0.00  
  44   23:20    0.0    66   33.9    16    170.8    19.1    999.0   0.00  
  44   23:30    0.0    68   33.2    17    171.3    19.7    999.0   0.00  
  44   23:40    0.0    68   32.1    18    171.5    19.7    999.0   0.00  
  44   23:50    0.0    68   32.4    16    170.8    19.1    999.0   0.00  
  45    0:00    0.0    67   33.1    15    167.4    17.9    999.0   0.00  
  45    0:10    0.0    67   33.9    13    165.7    15.5    999.0   0.00  
  45    0:20    0.0    68   32.6    11    165.9    13.1    999.0   0.00  
  45    0:30    0.0    69   31.1     9    166.0    10.8    999.0   0.00  
  45    0:40    0.0    70   30.1     8    166.0    10.2    999.0   0.00  
  45    0:50    0.0    70   30.9    10    165.2    11.3    999.0   0.00  
  45    1:00    0.0    68   34.0    11    163.4    12.5    999.0   0.00  
  45    1:10    0.0    67   34.1    13    164.4    15.5    999.0   0.00  
  45    1:20    0.0    66   34.5    13    166.6    16.1    999.0   0.00  
  45    1:30    0.0    66   34.3    14    164.7    16.7    999.0   0.00  
  45    1:40    0.0    66   34.5    14    164.2    18.5    999.0   0.00  
  45    1:50    0.0    66   33.9    13    155.4    19.1    999.0   0.00  
  45    2:00    0.0    66   33.8    15    155.0    19.7    999.0   0.00  
  45    2:10    0.0    66   33.8    15    160.3    21.5    999.0   0.00  
  45    2:20    0.0    66   33.4    17    161.4    22.7    999.0   0.00  
  45    2:30    0.0    66   33.1    16    159.4    23.3    999.0   0.00  
  45    2:40    0.0    66   32.1    19    165.7    25.6    999.0   0.00  
  45    2:50    0.0    67   28.5    21    169.1    29.8    999.0   0.00  
  45    3:00    0.0    67   27.3    20    163.6    32.8    999.0   0.00  
  45    3:10    0.0    67   27.0    21    169.2    30.4    999.0   0.00  
  45    3:20    0.0    67   26.9    20    169.8    28.6    999.0   0.00  
  45    3:30    0.0    67   26.5    19    172.3    28.0    999.0   0.00  
  45    3:40    0.0    67   26.1    19    172.3    23.9    999.0   0.00  
  45    3:50    0.0    67   26.8    19    174.4    23.9    999.0   0.00  
  45    4:00    0.0    67   26.4    18    173.8    25.0    999.0   0.00  
  45    4:10    0.0    67   25.7    17    176.3    25.6    999.0   0.00  
  45    4:20    0.0    68   25.1    16    180.0    20.3    999.0   0.00  
  45    4:30    0.0    68   24.6    14    169.9    18.5    999.0   0.00  
  45    4:40    0.0    68   25.5    15    167.3    18.5    999.0   0.00  
  45    4:50    0.0    67   27.2    14    166.0    19.1    999.0   0.00  
  45    5:00    0.0    66   28.3    16    169.8    23.3    999.0   0.00  
  45    5:10    0.0    66   28.6    20    169.1    25.0    999.0   0.00  
  45    5:20    0.0    66   29.5    21    171.7    26.2    999.0   0.00  
  45    5:30    0.0    65   31.0    18    174.4    20.3    999.0   0.00  
  45    5:40    0.0    64   32.3    17    177.3    19.1    999.0   0.00  
  45    5:50    0.0    64   32.7    16    168.3    17.9    999.0   0.00  
  45    6:00    0.0    65   30.9    15    166.4    17.9    999.0   0.00  
  45    6:10    0.0    66   28.0    15    167.2    17.3    999.0   0.00  
  45    6:20    0.0    67   26.5    18    167.9    21.5    999.0   0.00  
  45    6:30    0.0    66   27.5    16    167.3    19.7    999.0   0.00  
  45    6:40    2.0    66   28.4    14    168.7    17.9    999.0   0.00  
  45    6:50   12.0    66   28.4    14    171.0    16.7    999.0   0.00  
  45    7:00   40.0    66   29.1    15    171.4    19.1    999.0   0.00  
  45    7:10   68.0    67   28.0    14    171.9    16.7    999.0   0.00  
  45    7:20   97.0    67   28.3    17    172.1    21.5    999.0   0.00  
  45    7:30  127.0    67   28.0    20    177.8    23.3    999.0   0.00  
  45    7:40  160.0    67   28.4    21    181.9    23.9    999.0   0.00  
  45    7:50  193.0    67   29.0    20    185.5    22.7    999.0   0.00  
  45    8:00  226.0    66   29.5    20    186.2    25.0    999.0   0.00  
  45    8:10  259.0    66   29.4    24    180.4    29.8    999.0   0.00  
  45    8:20  293.0    67   28.5    22    180.1    28.0    999.0   0.00  
  45    8:30  326.0    67   29.0    21    179.5    27.4    999.0   0.00  
  45    8:40  359.0    67   28.9    21    181.2    23.9    999.0   0.00  
  45    8:50  390.0    68   27.8    18    185.5    26.2    999.0   0.00  
  45    9:00  422.0    68   27.6    18    181.7    22.1    999.0   0.00  
  45    9:10  451.0    68   28.3    17    193.3    22.7    999.0   0.00  
  45    9:20  480.0    68   28.4    15    180.9    20.9    999.0   0.00  
  45    9:30  507.0    68   28.6    15    177.6    21.5    999.0   0.00  
  45    9:40  533.0    69   27.6    17    177.3    22.1    999.0   0.00  
  45    9:50  559.0    69   27.4    19    175.8    24.5    999.0   0.00  
  45   10:00  582.0    70   26.1    20    173.8    26.2    999.0   0.00  
  45   10:10  604.0    70   26.6    18    176.9    22.7    999.0   0.00  
  45   10:20  624.0    71   25.5    18    175.9    22.7    999.0   0.00  
  45   10:30  642.0    71   26.0    15    170.8    20.9    999.0   0.00  
  45   10:40  659.0    71   26.5    20    175.8    24.5    999.0   0.00  
  45   10:50  675.0    70   27.4    19    176.0    25.6    999.0   0.00  
  45   11:00  689.0    70   27.6    16    174.9    22.1    999.0   0.00  
  45   11:10  702.0    70   27.9    14    170.4    19.7    999.0   0.00  
  45   11:20  712.0    70   28.7    16    179.4    20.9    999.0   0.00  
  45   11:30  721.0    69   28.8    18    175.0    21.5    999.0   0.00  
  45   11:40  728.0    69   29.6    17    165.1    21.5    999.0   0.00  
  45   11:50  733.0    69   29.4    16    171.5    22.1    999.0   0.00  
  45   12:00  735.0    70   29.3    15    188.2    17.3    999.0   0.00  
  45   12:10  736.0    70   30.0    11    165.5    15.5    999.0   0.00  
  45   12:20  736.0    71   27.8    13    163.6    15.5    999.0   0.00  
  45   12:30  734.0    71   28.2    13    170.3    16.7    999.0   0.00  
  45   12:40  730.0    72   28.1    11    174.2    14.9    999.0   0.00  
  45   12:50  725.0    72   28.5    12    175.1    16.7    999.0   0.00  
  45   13:00  722.0    72   28.4    10    194.2    12.5    999.0   0.00  
  45   13:10  712.0    72   29.2    10    194.6    13.1    999.0   0.00  

Return to Silver Peak Trail graphs page.


Western Regional Climate Center,wrcc@dri.edu